Terminal Aerodrome Forecast
Issued by NWS

Home | Current Version | Previous Version | Text Only | Print | Product List | Glossary Off
Versions: 1 2 3 4 5 6 7 8 9 10 11 12 13 14 15 16 17 18 19 20 21 22 23 24 25 26

000
FTUS43 KLOT 092335
TAFMDW
TAF
KMDW 092335Z 1000/1106 31009KT P6SM FEW035 BKN150
     FM100900 23009KT P6SM SCT050 BKN100
     FM102100 31010KT P6SM BKN050=

USA.gov is the U.S. government's official web portal to all federal, state and local government web resources and services.